Baikonur, Kazakhstan
Current Conditions -  °F | °C
As of 1:00 AM on Saturday 25 Oct 2014 (Local Time) from UAOO Reporting Station
Broken Clouds Broken Clouds  
Wind Chill: 38°   Ceiling: 1600
Heat Index: 46°   Visibility: 6mi
Dew Point: 43°   Wind: 22mph
Humidity: 87%   Direction: 340°NNW
Pressure: 29.94"   Gusts: NA
Location:  46.1°N, 63°E
Report Text: UAOO 242000Z 34010MPS 9999 BKN016CB 08/06 Q1014 NOSIG RMKQFE749/0999
Loading
Personal Weather Stations






























Interactive Weather Map
Tropical Storm Tracking
New forecast layout! Learn more

10-Day Weather Forecast

Advertisements
Track Severe Weather on mobile